createdAt,value
2022-12-18T00:02:24.674Z,26.70
2022-12-18T00:04:58.211Z,26.23
2022-12-18T00:07:29.166Z,23.85
2022-12-18T00:09:58.984Z,27.95
2022-12-18T00:12:30.305Z,27.50
2022-12-18T00:15:02.304Z,26.77
2022-12-18T00:17:42.460Z,23.27
2022-12-18T00:20:22.779Z,24.73
2022-12-18T00:22:55.807Z,18.83
2022-12-18T00:25:29.712Z,20.27
2022-12-18T00:28:05.716Z,19.75
2022-12-18T00:30:35.583Z,24.02
2022-12-18T00:33:09.733Z,25.10
2022-12-18T00:35:43.175Z,26.10
2022-12-18T00:38:16.759Z,20.85
2022-12-18T00:40:52.761Z,22.50
2022-12-18T00:43:22.022Z,19.95
2022-12-18T00:45:53.936Z,19.85
2022-12-18T00:48:26.316Z,18.77
2022-12-18T00:51:05.091Z,22.17
2022-12-18T00:53:36.301Z,19.98
2022-12-18T00:56:06.595Z,20.65
2022-12-18T00:58:40.724Z,18.98
2022-12-18T01:01:12.105Z,19.85
2022-12-18T01:03:46.220Z,19.58
2022-12-18T01:06:19.635Z,21.15
2022-12-18T01:08:50.089Z,22.08
2022-12-18T01:11:23.140Z,20.83
2022-12-18T01:13:53.078Z,17.95
2022-12-18T01:16:26.440Z,22.83
2022-12-18T01:18:57.379Z,23.42
2022-12-18T01:21:29.759Z,20.42
2022-12-18T01:24:01.083Z,17.70
2022-12-18T01:26:31.380Z,17.05
2022-12-18T01:29:01.805Z,19.70
2022-12-18T01:31:35.571Z,20.20
2022-12-18T01:34:06.896Z,21.67
2022-12-18T01:36:42.540Z,22.50
2022-12-18T01:39:16.097Z,20.88
2022-12-18T01:41:58.735Z,23.27
2022-12-18T01:45:04.330Z,20.50
2022-12-18T01:47:40.095Z,18.80
2022-12-18T01:50:14.444Z,21.35
2022-12-18T01:52:50.657Z,24.52
2022-12-18T01:55:22.897Z,23.60
2022-12-18T01:57:56.164Z,18.65
2022-12-18T02:00:27.495Z,20.52
2022-12-18T02:02:58.164Z,17.98
2022-12-18T02:05:38.362Z,44.55
2022-12-18T02:08:17.527Z,46.25
2022-12-18T02:10:57.112Z,29.70
2022-12-18T02:13:35.122Z,19.08
2022-12-18T02:16:12.519Z,20.55
2022-12-18T02:18:49.023Z,22.33
2022-12-18T02:21:31.452Z,22.30
2022-12-18T02:24:17.472Z,23.35
2022-12-18T02:26:54.098Z,27.40
2022-12-18T02:29:29.944Z,30.20
2022-12-18T02:32:03.002Z,23.45
2022-12-18T02:34:36.623Z,17.33
2022-12-18T02:37:10.883Z,18.27
2022-12-18T02:39:44.125Z,21.27
2022-12-18T02:42:20.032Z,16.50
2022-12-18T02:44:54.341Z,16.85
2022-12-18T02:47:30.929Z,17.20
2022-12-18T02:50:11.402Z,15.18
2022-12-18T02:52:49.634Z,25.52
2022-12-18T02:55:31.184Z,16.40
2022-12-18T02:58:16.443Z,16.13
2022-12-18T03:00:54.272Z,15.60
2022-12-18T03:03:31.274Z,22.08
2022-12-18T03:06:05.569Z,14.20
2022-12-18T03:08:41.166Z,13.20
2022-12-18T03:11:13.253Z,12.75
2022-12-18T03:13:51.575Z,16.77
2022-12-18T03:16:26.339Z,14.38
2022-12-18T03:19:01.666Z,12.45
2022-12-18T03:21:36.607Z,14.43
2022-12-18T03:24:09.822Z,16.10
2022-12-18T03:26:42.923Z,15.82
2022-12-18T03:29:21.548Z,14.05
2022-12-18T03:31:57.152Z,13.65
2022-12-18T03:34:32.410Z,15.23
2022-12-18T03:37:05.958Z,14.80
2022-12-18T03:39:36.649Z,14.10
2022-12-18T03:42:14.526Z,12.02
2022-12-18T03:44:59.760Z,13.90
2022-12-18T03:47:34.410Z,11.75
2022-12-18T03:50:12.981Z,16.48
2022-12-18T03:52:51.008Z,11.63
2022-12-18T03:55:23.472Z,10.35
2022-12-18T03:58:01.306Z,12.48
2022-12-18T04:00:41.672Z,11.20
2022-12-18T04:03:14.152Z,12.63
2022-12-18T04:05:50.185Z,12.40
2022-12-18T04:08:22.783Z,11.60
2022-12-18T04:11:03.168Z,11.65
2022-12-18T04:13:38.556Z,10.77
2022-12-18T04:16:14.909Z,12.65
2022-12-18T04:18:46.921Z,10.10
2022-12-18T04:21:18.287Z,13.52
2022-12-18T04:23:50.409Z,13.35
2022-12-18T04:26:22.919Z,10.23
2022-12-18T04:29:19.019Z,10.23
2022-12-18T04:31:51.991Z,10.20
2022-12-18T04:34:22.492Z,10.52
2022-12-18T04:36:55.806Z,9.63
2022-12-18T04:39:26.680Z,13.45
2022-12-18T04:41:59.370Z,11.38
2022-12-18T04:44:29.090Z,13.10
2022-12-18T04:47:01.476Z,10.77
2022-12-18T04:49:31.241Z,10.75
2022-12-18T04:52:01.089Z,11.55
2022-12-18T04:54:31.612Z,13.80
2022-12-18T04:57:01.412Z,12.15
2022-12-18T04:59:31.475Z,12.95
2022-12-18T05:02:03.886Z,10.23
2022-12-18T05:04:33.760Z,12.43
2022-12-18T05:07:03.675Z,10.32
2022-12-18T05:09:33.643Z,13.30
2022-12-18T05:12:03.380Z,12.88
2022-12-18T05:14:33.161Z,10.80
2022-12-18T05:17:05.610Z,15.15
2022-12-18T05:19:35.543Z,11.73
2022-12-18T05:22:05.294Z,10.75
2022-12-18T05:24:35.107Z,12.10
2022-12-18T05:27:04.915Z,11.27
2022-12-18T05:29:34.776Z,11.63
2022-12-18T05:32:07.642Z,13.88
2022-12-18T05:34:37.422Z,10.85
2022-12-18T05:37:07.121Z,10.57
2022-12-18T05:39:36.878Z,11.27
2022-12-18T05:42:06.842Z,11.35
2022-12-18T05:44:36.645Z,11.15
2022-12-18T05:47:08.987Z,11.60
2022-12-18T05:49:38.848Z,9.73
2022-12-18T05:52:08.699Z,9.60
2022-12-18T05:54:38.566Z,9.25
2022-12-18T05:57:08.371Z,11.10
2022-12-18T05:59:38.451Z,10.40
2022-12-18T06:02:10.956Z,11.20
2022-12-18T06:04:40.793Z,13.52
2022-12-18T06:07:10.587Z,10.70
2022-12-18T06:09:40.387Z,9.45
2022-12-18T06:12:10.724Z,12.38
2022-12-18T06:14:40.499Z,12.57
2022-12-18T06:17:12.882Z,10.43
2022-12-18T06:19:42.626Z,11.75
2022-12-18T06:22:12.376Z,10.02
2022-12-18T06:24:42.113Z,11.35
2022-12-18T06:27:11.868Z,9.82
2022-12-18T06:29:41.642Z,11.77
2022-12-18T06:32:14.027Z,8.73
2022-12-18T06:34:44.736Z,9.80
2022-12-18T06:37:14.523Z,8.27
2022-12-18T06:39:44.327Z,9.80
2022-12-18T06:42:14.074Z,9.68
2022-12-18T06:44:43.841Z,13.45
2022-12-18T06:47:16.220Z,11.30
2022-12-18T06:49:46.636Z,9.20
2022-12-18T06:52:16.397Z,11.10
2022-12-18T06:54:46.158Z,9.25
2022-12-18T06:57:15.918Z,8.00
2022-12-18T06:59:45.917Z,9.02
2022-12-18T07:02:18.626Z,8.02
2022-12-18T07:04:48.468Z,10.55
2022-12-18T07:07:18.234Z,9.80
2022-12-18T07:09:48.031Z,9.48
2022-12-18T07:12:17.801Z,9.85
2022-12-18T07:14:47.975Z,14.00
2022-12-18T07:17:20.368Z,11.18
2022-12-18T07:19:50.155Z,12.57
2022-12-18T07:22:19.939Z,10.75
2022-12-18T07:24:50.056Z,11.15
2022-12-18T07:27:19.847Z,11.65
2022-12-18T07:29:49.595Z,11.88
2022-12-18T07:32:24.065Z,9.30
2022-12-18T07:34:54.054Z,10.82
2022-12-18T07:37:27.851Z,10.55
2022-12-18T07:39:58.057Z,10.80
2022-12-18T07:42:35.889Z,10.85
2022-12-18T07:45:06.983Z,18.38
2022-12-18T07:47:42.255Z,12.95
2022-12-18T07:50:12.538Z,13.25
2022-12-18T07:52:47.696Z,15.45
2022-12-18T07:55:21.744Z,12.75
2022-12-18T07:57:56.417Z,18.55
2022-12-18T08:00:32.784Z,14.52
2022-12-18T08:03:08.388Z,12.70
2022-12-18T08:05:38.291Z,13.57
2022-12-18T08:08:08.550Z,10.93
2022-12-18T08:10:42.370Z,14.10
2022-12-18T08:13:12.276Z,11.68
2022-12-18T08:15:42.033Z,12.57
2022-12-18T08:18:18.470Z,11.82
2022-12-18T08:20:48.389Z,11.35
2022-12-18T08:23:26.494Z,13.80
2022-12-18T08:25:58.428Z,36.30
2022-12-18T08:28:28.303Z,68.30
2022-12-18T08:30:58.295Z,29.15
2022-12-18T08:33:36.044Z,17.77
2022-12-18T08:36:06.904Z,14.77
2022-12-18T08:38:39.846Z,14.73
2022-12-18T08:41:16.474Z,14.50
2022-12-18T08:44:02.655Z,14.38
2022-12-18T08:46:37.861Z,14.48
2022-12-18T08:49:13.918Z,17.52
2022-12-18T08:51:44.285Z,17.35
2022-12-18T08:54:16.514Z,15.18
2022-12-18T08:56:50.624Z,17.50
2022-12-18T08:59:20.781Z,16.25
2022-12-18T09:01:51.867Z,23.45
2022-12-18T09:04:26.600Z,19.77
2022-12-18T09:07:00.173Z,20.77
2022-12-18T09:09:29.948Z,17.23
2022-12-18T09:12:01.127Z,15.32
2022-12-18T09:14:39.226Z,13.90
2022-12-18T09:17:09.062Z,19.75
2022-12-18T09:19:41.516Z,15.82
2022-12-18T09:22:14.791Z,15.93
2022-12-18T09:24:47.749Z,18.85
2022-12-18T09:27:20.744Z,16.77
2022-12-18T09:29:52.515Z,14.18
2022-12-18T09:32:23.407Z,11.23
2022-12-18T09:34:59.747Z,13.90
2022-12-18T09:37:32.786Z,11.05
2022-12-18T09:40:02.622Z,8.77
2022-12-18T09:42:36.923Z,7.15
2022-12-18T09:45:08.677Z,4.78
2022-12-18T09:47:41.469Z,6.00
2022-12-18T09:50:28.165Z,5.65
2022-12-18T09:53:08.794Z,6.30
2022-12-18T09:55:43.526Z,7.00
2022-12-18T09:58:20.668Z,5.78
2022-12-18T10:00:50.856Z,5.65
2022-12-18T10:03:21.753Z,3.83
2022-12-18T10:06:02.872Z,4.55
2022-12-18T10:08:45.862Z,5.57
2022-12-18T10:11:29.424Z,4.88
2022-12-18T10:14:12.719Z,5.00
2022-12-18T10:16:56.918Z,4.82
2022-12-18T10:19:41.026Z,3.72
2022-12-18T10:22:25.680Z,5.88
2022-12-18T10:25:05.493Z,4.00
2022-12-18T10:27:36.672Z,4.85
2022-12-18T10:30:16.673Z,7.50
2022-12-18T10:32:46.720Z,6.57
2022-12-18T10:35:22.801Z,6.05
2022-12-18T10:38:10.311Z,3.10
2022-12-18T10:40:53.773Z,5.40
2022-12-18T10:43:27.562Z,4.47
2022-12-18T10:46:22.495Z,4.20
2022-12-18T10:48:58.690Z,9.52
2022-12-18T10:51:32.467Z,9.90
2022-12-18T10:54:08.682Z,3.85
2022-12-18T10:56:40.652Z,3.75
2022-12-18T10:59:15.906Z,4.80
2022-12-18T11:01:57.063Z,16.77
2022-12-18T11:04:28.786Z,5.55
2022-12-18T11:07:04.309Z,4.75
2022-12-18T11:09:38.790Z,3.83
2022-12-18T11:12:19.525Z,5.32
2022-12-18T11:14:51.900Z,6.20
2022-12-18T11:17:26.280Z,6.65
2022-12-18T11:20:04.865Z,4.90
2022-12-18T11:22:37.539Z,3.35
2022-12-18T11:25:32.271Z,4.65
2022-12-18T11:28:09.815Z,4.32
2022-12-18T11:30:41.256Z,4.03
2022-12-18T11:33:18.512Z,8.18
2022-12-18T11:35:54.538Z,6.18
2022-12-18T11:38:30.461Z,4.05
2022-12-18T11:41:06.742Z,5.68
2022-12-18T11:43:45.037Z,7.20
2022-12-18T11:46:19.971Z,7.57
2022-12-18T11:49:03.048Z,8.57
2022-12-18T11:51:39.152Z,6.78
2022-12-18T11:54:17.484Z,5.87
2022-12-18T11:56:57.477Z,6.70
2022-12-18T11:59:37.818Z,7.60
2022-12-18T12:02:33.670Z,7.82
2022-12-18T12:05:24.382Z,6.95
2022-12-18T12:08:00.844Z,8.30
2022-12-18T12:10:45.815Z,7.78
2022-12-18T12:13:45.478Z,8.27
2022-12-18T12:16:25.213Z,7.70
2022-12-18T12:19:07.375Z,9.63
2022-12-18T12:21:44.324Z,7.95
2022-12-18T12:24:30.595Z,8.10
2022-12-18T12:27:13.353Z,9.63
2022-12-18T12:30:02.101Z,10.20
2022-12-18T12:32:49.360Z,10.50
2022-12-18T12:35:31.738Z,10.35
2022-12-18T12:38:11.958Z,16.55
2022-12-18T12:40:55.333Z,11.27
2022-12-18T12:43:35.127Z,8.35
2022-12-18T12:46:13.931Z,11.48
2022-12-18T12:48:49.193Z,9.30
2022-12-18T12:51:23.330Z,6.45
2022-12-18T12:53:53.432Z,9.68
2022-12-18T12:56:24.992Z,7.45
2022-12-18T12:59:05.972Z,6.68
2022-12-18T13:01:51.418Z,11.50
2022-12-18T13:04:31.566Z,7.53
2022-12-18T13:07:09.019Z,10.40
2022-12-18T13:10:17.482Z,16.15
2022-12-18T13:12:57.883Z,6.03
2022-12-18T13:15:36.856Z,10.32
2022-12-18T13:18:30.111Z,8.13
2022-12-18T13:21:11.899Z,6.45
2022-12-18T13:23:42.286Z,9.80
2022-12-18T13:26:36.923Z,10.50
2022-12-18T13:29:09.804Z,9.10
2022-12-18T13:32:09.615Z,7.50
2022-12-18T13:34:41.993Z,7.30
2022-12-18T13:37:46.039Z,6.43
2022-12-18T13:41:01.074Z,10.60
2022-12-18T13:43:34.916Z,9.07
2022-12-18T13:46:20.884Z,11.48
2022-12-18T13:48:55.921Z,8.38
2022-12-18T13:51:29.551Z,8.98
2022-12-18T13:54:02.692Z,6.88
2022-12-18T13:59:38.446Z,5.65
2022-12-18T14:02:18.087Z,6.85
2022-12-18T14:04:50.036Z,7.18
2022-12-18T14:07:24.651Z,8.57
2022-12-18T14:10:06.439Z,7.95
2022-12-18T14:13:03.119Z,9.68
2022-12-18T14:15:38.530Z,9.60
2022-12-18T14:18:23.492Z,8.38
2022-12-18T14:20:55.056Z,14.85
2022-12-18T14:23:40.235Z,6.85
2022-12-18T14:26:26.412Z,6.28
2022-12-18T14:29:02.092Z,5.73
2022-12-18T14:31:35.812Z,10.40
2022-12-18T14:34:05.702Z,6.20
2022-12-18T14:36:35.559Z,5.10
2022-12-18T14:39:08.990Z,14.75
2022-12-18T14:41:38.869Z,51.50
2022-12-18T14:44:15.060Z,15.65
2022-12-18T14:46:47.489Z,9.65
2022-12-18T14:49:25.408Z,5.68
2022-12-18T14:51:58.675Z,7.43
2022-12-18T14:54:33.315Z,13.57
2022-12-18T14:57:09.715Z,9.75
2022-12-18T14:59:40.476Z,13.77
2022-12-18T15:02:22.381Z,8.48
2022-12-18T15:05:09.818Z,11.68
2022-12-18T15:07:47.327Z,6.45
2022-12-18T15:10:23.386Z,8.52
2022-12-18T15:13:09.520Z,34.47
2022-12-18T15:15:50.523Z,38.60
2022-12-18T15:18:22.730Z,28.88
2022-12-18T15:20:58.007Z,13.25
2022-12-18T15:23:30.283Z,15.67
2022-12-18T15:26:04.406Z,9.77
2022-12-18T15:28:39.060Z,16.13
2022-12-18T15:31:26.205Z,21.60
2022-12-18T15:34:21.924Z,23.38
2022-12-18T15:36:54.397Z,13.35
2022-12-18T15:39:24.626Z,11.93
2022-12-18T15:42:11.644Z,6.32
2022-12-18T15:44:41.765Z,8.10
2022-12-18T15:47:15.932Z,7.93
2022-12-18T15:49:46.978Z,7.97
2022-12-18T15:52:27.125Z,8.38
2022-12-18T15:55:09.692Z,7.70
2022-12-18T15:57:42.060Z,6.32
2022-12-18T16:00:16.360Z,6.75
2022-12-18T16:02:48.199Z,11.57
2022-12-18T16:05:21.194Z,11.93
2022-12-18T16:07:51.497Z,8.95
2022-12-18T16:10:21.467Z,6.95
2022-12-18T16:12:54.207Z,7.78
2022-12-18T16:15:24.960Z,14.10
2022-12-18T16:17:55.523Z,16.60
2022-12-18T16:20:26.475Z,9.32
2022-12-18T16:22:58.294Z,7.28
2022-12-18T16:25:30.310Z,10.07
2022-12-18T16:28:04.760Z,9.65
2022-12-18T16:30:40.587Z,7.40
2022-12-18T16:33:13.809Z,10.30
2022-12-18T16:35:44.627Z,6.18
2022-12-18T16:38:14.593Z,4.20
2022-12-18T16:41:05.589Z,8.32
2022-12-18T16:43:41.604Z,6.65
2022-12-18T16:46:12.906Z,5.88
2022-12-18T16:48:42.723Z,9.05
2022-12-18T16:51:12.679Z,13.68
2022-12-18T16:53:44.302Z,9.43
2022-12-18T16:56:14.832Z,13.82
2022-12-18T16:58:47.291Z,8.70
2022-12-18T17:01:20.940Z,7.18
2022-12-18T17:03:56.722Z,8.57
2022-12-18T17:06:27.507Z,7.03
2022-12-18T17:08:58.900Z,12.40
2022-12-18T17:11:30.751Z,11.15
2022-12-18T17:14:08.448Z,8.55
2022-12-18T17:16:42.291Z,5.35
2022-12-18T17:19:17.109Z,5.47
2022-12-18T17:21:48.289Z,18.35
2022-12-18T17:24:18.453Z,11.20
2022-12-18T17:26:51.412Z,23.85
2022-12-18T17:29:25.893Z,19.80
2022-12-18T17:31:56.308Z,8.55
2022-12-18T17:34:31.093Z,8.25
2022-12-18T17:37:04.912Z,9.73
2022-12-18T17:39:34.782Z,10.70
2022-12-18T17:42:05.300Z,5.85
2022-12-18T17:44:38.229Z,10.48
2022-12-18T17:47:10.155Z,8.07
2022-12-18T17:49:40.126Z,8.88
2022-12-18T17:52:10.354Z,9.82
2022-12-18T17:54:42.353Z,4.95
2022-12-18T17:57:12.358Z,7.00
2022-12-18T17:59:48.469Z,7.95
2022-12-18T18:02:18.349Z,6.47
2022-12-18T18:04:49.200Z,6.67
2022-12-18T18:07:19.111Z,17.30
2022-12-18T18:09:48.923Z,57.43
2022-12-18T18:12:31.243Z,19.20
2022-12-18T18:15:03.779Z,9.60
2022-12-18T18:17:35.670Z,12.00
2022-12-18T18:20:07.803Z,33.72
2022-12-18T18:22:38.818Z,9.20
2022-12-18T18:25:12.456Z,6.43
2022-12-18T18:27:44.129Z,14.10
2022-12-18T18:30:19.548Z,8.70
2022-12-18T18:32:56.596Z,14.80
2022-12-18T18:35:53.400Z,8.23
2022-12-18T18:38:24.027Z,13.80
2022-12-18T18:41:01.070Z,8.33
2022-12-18T18:43:31.825Z,9.43
2022-12-18T18:46:06.184Z,9.57
2022-12-18T18:48:41.752Z,16.03
2022-12-18T18:51:20.852Z,13.75
2022-12-18T18:53:53.981Z,8.10
2022-12-18T18:59:18.629Z,7.33
2022-12-18T19:01:52.806Z,7.37
2022-12-18T19:04:23.845Z,8.13
2022-12-18T19:06:53.759Z,35.63
2022-12-18T19:09:24.523Z,120.20
2022-12-18T19:12:07.850Z,62.30
2022-12-18T19:14:37.785Z,44.77
2022-12-18T19:17:10.380Z,12.80
2022-12-18T19:19:42.968Z,7.77
2022-12-18T19:22:14.196Z,8.23
2022-12-18T19:24:44.080Z,10.17
2022-12-18T19:27:13.928Z,9.40
2022-12-18T19:29:46.858Z,11.70
2022-12-18T19:32:20.321Z,10.23
2022-12-18T19:34:50.248Z,9.97
2022-12-18T19:37:20.476Z,11.03
2022-12-18T19:39:50.326Z,11.07
2022-12-18T19:42:29.280Z,10.13
2022-12-18T19:45:05.011Z,10.20
2022-12-18T19:47:38.415Z,10.87
2022-12-18T19:50:14.849Z,10.23
2022-12-18T19:52:44.842Z,12.60
2022-12-18T19:55:18.131Z,10.57
2022-12-18T19:57:48.874Z,10.30
2022-12-18T20:00:21.134Z,11.90
2022-12-18T20:03:00.114Z,10.47
2022-12-18T20:05:33.786Z,14.27
2022-12-18T20:08:05.623Z,12.20
2022-12-18T20:10:36.737Z,11.07
2022-12-18T20:13:07.554Z,13.40
2022-12-18T20:15:40.509Z,13.80
2022-12-18T20:18:24.300Z,13.73
2022-12-18T20:20:55.193Z,13.70
2022-12-18T20:23:27.811Z,12.23
2022-12-18T20:25:58.622Z,15.00
2022-12-18T20:28:28.898Z,15.73
2022-12-18T20:31:03.006Z,13.20
2022-12-18T20:33:35.579Z,14.75
2022-12-18T20:36:09.520Z,18.70
2022-12-18T20:38:40.804Z,14.57
2022-12-18T20:41:14.321Z,18.10
2022-12-18T20:43:47.979Z,16.23
2022-12-18T20:46:19.600Z,16.98
2022-12-18T20:48:52.014Z,15.98
2022-12-18T20:51:26.799Z,16.70
2022-12-18T20:53:59.708Z,15.57
2022-12-18T20:56:33.351Z,17.90
2022-12-18T20:59:05.203Z,17.50
2022-12-18T21:01:36.143Z,19.17
2022-12-18T21:04:12.479Z,17.90
2022-12-18T21:06:49.382Z,16.53
2022-12-18T21:09:21.988Z,24.58
2022-12-18T21:12:04.601Z,18.40
2022-12-18T21:14:35.403Z,21.03
2022-12-18T21:17:05.286Z,16.50
2022-12-18T21:19:39.199Z,21.83
2022-12-18T21:22:16.050Z,21.90
2022-12-18T21:24:45.829Z,26.60
2022-12-18T21:27:17.618Z,21.77
2022-12-18T21:29:48.105Z,21.90
2022-12-18T21:32:20.877Z,44.73
2022-12-18T21:34:54.684Z,20.30
2022-12-18T21:37:28.159Z,19.80
2022-12-18T21:39:58.018Z,21.77
2022-12-18T21:42:40.485Z,23.27
2022-12-18T21:45:14.978Z,31.00
2022-12-18T21:47:44.711Z,19.67
2022-12-18T21:50:20.502Z,22.20
2022-12-18T21:52:50.423Z,24.40
2022-12-18T21:55:20.313Z,21.50
2022-12-18T21:57:50.316Z,27.02
2022-12-18T22:00:21.024Z,20.67
2022-12-18T22:03:15.554Z,23.73
2022-12-18T22:05:45.217Z,23.63
2022-12-18T22:08:15.192Z,24.73
2022-12-18T22:10:52.627Z,24.95
2022-12-18T22:13:28.596Z,21.90
2022-12-18T22:16:04.728Z,24.50
2022-12-18T22:18:34.680Z,24.00
2022-12-18T22:21:10.206Z,25.07
2022-12-18T22:23:39.960Z,24.20
2022-12-18T22:26:10.818Z,26.27
2022-12-18T22:28:53.019Z,27.30
2022-12-18T22:31:22.939Z,22.77
2022-12-18T22:33:53.874Z,28.38
2022-12-18T22:36:26.656Z,25.35
2022-12-18T22:38:56.449Z,21.50
2022-12-18T22:41:26.237Z,24.42
2022-12-18T22:43:58.649Z,25.13
2022-12-18T22:46:29.392Z,22.53
2022-12-18T22:48:59.151Z,32.10
2022-12-18T22:51:31.553Z,20.77
2022-12-18T22:54:01.500Z,24.23
2022-12-18T22:56:31.876Z,26.10
2022-12-18T22:59:01.803Z,24.67
2022-12-18T23:01:33.045Z,23.90
2022-12-18T23:04:05.079Z,27.43
2022-12-18T23:06:37.446Z,28.10
2022-12-18T23:09:07.192Z,24.25
2022-12-18T23:11:36.935Z,22.80
2022-12-18T23:14:06.703Z,27.37
2022-12-18T23:16:36.521Z,24.50
2022-12-18T23:19:06.804Z,26.60
2022-12-18T23:21:39.870Z,23.43
2022-12-18T23:24:10.593Z,27.48
2022-12-18T23:26:40.722Z,26.90
2022-12-18T23:29:10.905Z,28.43
2022-12-18T23:31:42.581Z,23.90
2022-12-18T23:34:15.579Z,23.50
2022-12-18T23:36:49.970Z,27.17
2022-12-18T23:39:29.412Z,24.50
2022-12-18T23:42:00.393Z,25.30
2022-12-18T23:44:30.346Z,23.43
2022-12-18T23:47:00.152Z,26.83
2022-12-18T23:49:29.936Z,26.35
2022-12-18T23:52:02.423Z,27.52
2022-12-18T23:54:33.283Z,28.40
2022-12-18T23:57:03.817Z,26.73
2022-12-18T23:59:33.885Z,28.73
